.
WxDataArchive / Data Records for 2010-05-12
2010-05-11 May 2010 2010-05-13

Data Records for Wednesday, 12 May 2010

Time	Temp	Chill	HIndex	Humid	Dewpt	 Wind 	HiWind	WindDir	Rain 	Barom 
-----	----	-----	------	-----	-----	------	------	-------	-----	----- 
00:00	55.1	55.1	55.1	90	52.2	0	0	---	0.00	30.003 
00:05	55.0	55.0	55.0	90	52.1	0	0	---	0.00	30.003 
00:10	54.8	54.8	54.8	90	51.9	0	0	---	0.00	30.003 
00:15	54.7	54.7	54.7	90	51.8	0	0	---	0.00	30.004 
00:20	54.4	54.4	54.4	90	51.5	0	0	---	0.00	30.004 
00:25	54.1	54.1	54.1	90	51.2	0	0	---	0.00	30.004 
00:30	53.8	53.8	53.8	91	51.2	0	0	---	0.00	30.011 
00:35	53.6	53.6	53.6	91	51.0	0	0	---	0.00	30.011 
00:40	53.3	53.3	53.3	91	50.7	0	0	---	0.00	30.011 
00:45	53.1	53.1	53.1	91	50.5	0	0	---	0.00	30.012 
00:50	52.8	52.8	52.8	91	50.2	0	0	---	0.00	30.012 
00:55	52.3	52.3	52.3	91	49.8	0	0	---	0.00	30.012 
01:00	51.9	51.9	51.9	91	49.4	0	0	---	0.00	30.016 
01:05	51.6	51.6	51.6	91	49.1	0	0	---	0.00	30.016 
01:10	51.4	51.4	51.4	92	49.2	0	0	---	0.00	30.016 
01:15	51.1	51.1	51.1	92	48.9	0	0	---	0.00	30.015 
01:20	50.8	50.8	50.8	92	48.6	0	0	---	0.00	30.015 
01:25	50.5	50.5	50.5	92	48.3	0	0	---	0.00	30.015 
01:30	50.2	50.2	50.2	92	48.0	0	0	---	0.00	30.019 
01:35	49.9	49.9	49.9	92	47.7	0	0	---	0.00	30.019 
01:40	49.8	49.8	49.8	92	47.6	0	0	---	0.00	30.019 
01:45	49.6	49.6	49.6	92	47.4	0	0	---	0.00	30.024 
01:50	49.5	49.5	49.5	93	47.6	0	0	---	0.00	30.024 
01:55	49.2	49.2	49.2	93	47.3	0	0	---	0.00	30.024 
02:00	49.1	49.1	49.1	93	47.2	0	0	---	0.00	30.022 
02:05	48.8	48.8	48.8	93	46.9	0	0	---	0.00	30.022 
02:10	48.6	48.6	48.6	93	46.7	0	0	---	0.00	30.022 
02:15	48.5	48.5	48.5	93	46.6	0	0	---	0.00	30.024 
02:20	48.2	48.2	48.2	93	46.3	0	0	---	0.00	30.024 
02:25	48.0	48.0	48.0	93	46.1	0	0	---	0.00	30.024 
02:30	48.0	48.0	48.0	93	46.1	0	0	---	0.00	30.025 
02:35	48.0	48.0	48.0	93	46.1	0	0	---	0.00	30.025 
02:40	48.2	48.2	48.2	94	46.6	0	2	270	0.00	30.025 
02:45	48.3	48.3	48.3	94	46.7	0	0	---	0.00	30.025 
02:50	48.5	48.5	48.5	94	46.9	0	0	---	0.00	30.025 
02:55	48.5	48.5	48.5	94	46.9	0	0	---	0.00	30.025 
03:00	49.1	49.1	49.1	95	47.7	0	0	---	0.00	30.021 
03:05	49.5	49.5	49.5	95	48.1	0	0	---	0.00	30.021 
03:10	49.8	49.8	49.8	95	48.4	0	0	---	0.00	30.021 
03:15	49.9	49.9	49.9	95	48.5	0	0	---	0.00	30.015 
03:20	50.1	50.1	50.1	95	48.7	0	0	---	0.00	30.015 
03:25	50.4	50.4	50.4	95	49.0	0	0	---	0.00	30.015 
03:30	50.5	50.5	50.5	95	49.1	0	0	---	0.00	30.018 
03:35	50.7	50.7	50.7	96	49.6	0	0	---	0.00	30.018 
03:40	50.8	50.8	50.8	96	49.7	0	0	---	0.00	30.018 
03:45	51.0	51.0	51.0	96	49.9	0	0	---	0.00	30.023 
03:50	51.0	51.0	51.0	96	49.9	0	0	---	0.00	30.023 
03:55	51.1	51.1	51.1	96	50.0	0	0	---	0.00	30.023 
04:00	51.1	51.1	51.1	96	50.0	0	0	---	0.00	30.020 
04:05	51.3	51.3	51.3	96	50.2	0	0	---	0.00	30.020 
04:10	51.3	51.3	51.3	96	50.2	0	0	---	0.00	30.020 
04:15	51.3	51.3	51.3	96	50.2	0	0	---	0.00	30.013 
04:20	51.4	51.4	51.4	96	50.3	0	0	---	0.00	30.013 
04:25	51.4	51.4	51.4	96	50.3	0	0	---	0.00	30.013 
04:30	51.6	51.6	51.6	96	50.5	0	1	270	0.00	30.019 
04:35	51.6	51.6	51.6	96	50.5	0	0	---	0.00	30.019 
04:40	51.6	51.6	51.6	96	50.5	0	0	---	0.00	30.019 
04:45	51.6	51.6	51.6	96	50.5	0	0	---	0.00	30.022 
04:50	51.6	51.6	51.6	96	50.5	0	0	---	0.00	30.022 
04:55	51.6	51.6	51.6	96	50.5	0	0	---	0.00	30.022 
05:00	51.7	51.7	51.7	96	50.6	0	0	---	0.00	30.035 
05:05	51.9	51.9	51.9	96	50.8	0	1	270	0.00	30.035 
05:10	51.9	51.9	51.9	96	50.8	0	2	270	0.00	30.035 
05:15	51.9	51.9	51.9	96	50.8	0	1	270	0.00	30.034 
05:20	51.9	51.9	51.9	96	50.8	0	1	270	0.00	30.034 
05:25	51.9	51.9	51.9	96	50.8	0	2	270	0.00	30.034 
05:30	51.9	51.9	51.9	96	50.8	0	1	270	0.00	30.037 
05:35	51.9	51.9	51.9	96	50.8	1	3	270	0.00	30.037 
05:40	51.7	51.7	51.7	96	50.6	0	2	270	0.00	30.037 
05:45	51.7	51.7	51.7	96	50.6	0	2	270	0.00	30.026 
05:50	51.6	51.6	51.6	96	50.5	0	2	270	0.00	30.026 
05:55	51.6	51.6	51.6	96	50.5	0	3	270	0.00	30.026 
06:00	51.6	51.6	51.6	96	50.5	0	2	270	0.00	30.037 
06:05	51.6	51.6	51.6	96	50.5	0	1	270	0.00	30.037 
06:10	51.6	51.6	51.6	96	50.5	0	1	270	0.00	30.037 
06:15	51.6	51.6	51.6	96	50.5	0	1	270	0.00	30.037 
06:20	51.6	51.6	51.6	96	50.5	0	1	270	0.00	30.037 
06:25	51.6	51.6	51.6	96	50.5	0	1	270	0.00	30.037 
06:30	51.4	51.4	51.4	96	50.3	0	2	270	0.00	30.038 
06:35	51.3	51.3	51.3	96	50.2	0	1	270	0.00	30.038 
06:40	51.1	51.1	51.1	96	50.0	0	1	270	0.00	30.038 
06:45	51.0	51.0	51.0	96	49.9	0	1	270	0.00	30.039 
06:50	50.8	50.8	50.8	96	49.7	0	1	270	0.00	30.039 
06:55	50.8	50.8	50.8	96	49.7	0	2	270	0.00	30.039 
07:00	50.7	50.7	50.7	96	49.6	1	2	270	0.00	30.035 
07:05	50.7	50.7	50.7	96	49.6	1	4	270	0.00	30.035 
07:10	50.5	50.5	50.5	97	49.7	0	2	90	0.00	30.035 
07:15	50.4	50.4	50.4	96	49.3	2	4	90	0.00	30.049 
07:20	50.2	50.2	50.2	97	49.4	1	4	90	0.00	30.049 
07:25	50.2	50.2	50.2	97	49.4	1	3	90	0.00	30.049 
07:30	50.2	50.2	50.2	97	49.4	1	3	90	0.00	30.048 
07:35	50.2	50.2	50.2	97	49.4	1	3	90	0.00	30.048 
07:40	50.2	50.2	50.2	97	49.4	1	3	90	0.00	30.048 
07:45	50.2	50.2	50.2	97	49.4	1	3	90	0.00	30.038 
07:50	50.2	50.2	50.2	97	49.4	1	3	90	0.00	30.038 
07:55	49.9	49.9	49.9	97	49.1	2	6	90	0.00	30.038 
08:00	49.8	49.8	49.8	97	49.0	1	4	90	0.00	30.027 
08:05	49.6	49.6	49.6	97	48.8	1	5	112	0.00	30.027 
08:10	49.6	49.6	49.6	97	48.8	1	4	90	0.00	30.027 
08:15	49.5	49.5	49.5	97	48.7	2	4	90	0.00	30.046 
08:20	49.5	49.5	49.5	97	48.7	1	5	90	0.00	30.046 
08:25	49.4	49.4	49.4	97	48.6	1	5	90	0.00	30.046 
08:30	49.4	49.4	49.4	97	48.6	2	6	90	0.00	30.063 
08:35	49.1	49.1	49.1	97	48.3	2	6	90	0.00	30.063 
08:40	49.1	49.1	49.1	97	48.3	2	5	90	0.00	30.063 
08:45	49.1	49.1	49.1	97	48.3	1	3	90	0.00	30.080 
08:50	49.2	49.2	49.2	97	48.4	0	2	90	0.00	30.080 
08:55	49.4	49.4	49.4	97	48.6	0	3	90	0.00	30.080 
09:00	49.2	49.2	49.2	97	48.4	1	4	68	0.00	30.076 
09:05	49.2	49.2	49.2	97	48.4	0	2	68	0.00	30.076 
09:10	49.2	49.2	49.2	97	48.4	1	3	68	0.00	30.076 
09:15	49.2	49.2	49.2	97	48.4	1	3	68	0.00	30.079 
09:20	49.2	49.2	49.2	97	48.4	1	4	68	0.00	30.079 
09:25	49.2	49.2	49.2	97	48.4	1	4	68	0.00	30.079 
09:30	49.2	49.2	49.2	97	48.4	1	6	68	0.00	30.080 
09:35	49.1	49.1	49.1	97	48.3	1	5	112	0.00	30.080 
09:40	49.1	49.1	49.1	97	48.3	2	9	112	0.00	30.080 
09:45	49.1	49.1	49.1	97	48.3	1	5	68	0.00	30.095 
09:50	49.1	49.1	49.1	97	48.3	2	6	135	0.00	30.095 
09:55	48.9	48.9	48.9	97	48.1	3	7	112	0.00	30.095 
10:00	49.1	49.1	49.1	97	48.3	1	3	112	0.00	30.104 
10:05	49.1	49.1	49.1	97	48.3	1	4	112	0.00	30.104 
10:10	49.1	49.1	49.1	97	48.3	1	4	112	0.00	30.104 
10:15	49.2	49.2	49.2	97	48.4	2	5	112	0.00	30.117 
10:20	49.2	49.2	49.2	97	48.4	2	6	112	0.00	30.117 
10:25	49.2	49.2	49.2	97	48.4	2	6	112	0.00	30.117 
10:30	49.4	49.4	49.4	97	48.6	1	2	112	0.00	30.109 
10:35	49.4	49.4	49.4	97	48.6	1	4	112	0.00	30.109 
10:40	49.2	49.2	49.2	97	48.4	2	6	90	0.00	30.109 
10:45	49.1	49.1	49.1	97	48.3	3	7	90	0.00	30.095 
10:50	49.2	49.2	49.2	97	48.4	1	5	112	0.00	30.095 
10:55	49.2	49.2	49.2	97	48.4	2	6	112	0.00	30.095 
11:00	49.2	49.2	49.2	97	48.4	2	5	68	0.00	30.097 
11:05	49.4	49.4	49.4	97	48.6	2	10	112	0.00	30.097 
11:10	49.4	49.4	49.4	97	48.6	3	6	90	0.00	30.097 
11:15	49.4	49.4	49.4	97	48.6	3	9	112	0.00	30.085 
11:20	49.5	49.5	49.5	97	48.7	2	6	112	0.00	30.085 
11:25	49.5	49.5	49.5	97	48.7	2	7	112	0.00	30.085 
11:30	49.5	49.5	49.5	97	48.7	3	6	112	0.00	30.091 
11:35	49.6	49.6	49.6	97	48.8	2	6	112	0.00	30.091 
11:40	49.8	49.8	49.8	97	49.0	1	4	112	0.00	30.091 
11:45	49.8	49.8	49.8	97	49.0	1	4	90	0.00	30.090 
11:50	49.8	49.8	49.8	97	49.0	3	9	90	0.00	30.090 
11:55	49.8	49.8	49.8	97	49.0	3	6	112	0.00	30.090 
12:00	49.9	49.9	49.9	97	49.1	1	4	112	0.00	30.092 
12:05	49.9	49.9	49.9	97	49.1	2	4	112	0.00	30.092 
12:10	49.9	49.9	49.9	97	49.1	1	5	90	0.00	30.092 
12:15	50.1	50.1	50.1	97	49.3	1	4	112	0.00	30.098 
12:20	49.9	49.9	49.9	97	49.1	2	6	90	0.00	30.098 
12:25	49.9	49.9	49.9	97	49.1	2	8	112	0.00	30.098 
12:30	50.1	50.1	50.1	97	49.3	3	8	90	0.00	30.083 
12:35	50.1	50.1	50.1	97	49.3	3	6	90	0.00	30.083 
12:40	50.2	50.2	50.2	97	49.4	2	6	112	0.00	30.083 
12:45	50.2	50.2	50.2	97	49.4	3	7	90	0.00	30.096 
12:50	50.1	50.1	50.1	97	49.3	2	6	112	0.00	30.096 
12:55	50.2	50.2	50.2	97	49.4	2	10	112	0.00	30.096 
13:00	50.1	50.1	50.1	97	49.3	1	4	112	0.00	30.111 
13:05	49.9	49.9	49.9	97	49.1	1	10	112	0.00	30.111 
13:10	49.6	49.6	49.6	97	48.8	1	5	135	0.00	30.111 
13:15	49.5	49.5	49.5	97	48.7	1	3	90	0.00	30.113 
13:20	49.4	49.4	49.4	97	48.6	1	4	135	0.00	30.113 
13:25	49.4	49.4	49.4	97	48.6	1	4	112	0.00	30.113 
13:30	49.4	49.4	49.4	97	48.6	0	4	90	0.00	30.116 
13:35	49.4	49.4	49.4	97	48.6	3	7	112	0.01	30.116 
13:40	49.4	49.4	49.4	97	48.6	2	6	135	0.00	30.116 
13:45	49.2	49.2	49.2	97	48.4	1	6	90	0.03	30.125 
13:50	49.2	49.2	49.2	97	48.4	1	4	112	0.00	30.125 
13:55	49.2	49.2	49.2	97	48.4	1	4	90	0.00	30.125 
14:00	49.2	49.2	49.2	97	48.4	1	3	90	0.01	30.133 
14:05	49.2	49.2	49.2	97	48.4	2	7	90	0.04	30.133 
14:10	49.4	49.4	49.4	97	48.6	1	6	112	0.00	30.133 
14:15	49.5	49.5	49.5	97	48.7	0	3	112	0.00	30.148 
14:20	49.5	49.5	49.5	97	48.7	1	3	112	0.00	30.148 
14:25	49.5	49.5	49.5	97	48.7	1	3	112	0.01	30.148 
14:30	49.5	49.5	49.5	97	48.7	2	6	90	0.01	30.145 
14:35	49.6	49.6	49.6	97	48.8	2	5	112	0.01	30.145 
14:40	49.9	49.9	49.9	97	49.1	0	5	112	0.00	30.145 
14:45	49.8	49.8	49.8	97	49.0	3	6	112	0.00	30.149 
14:50	49.6	49.6	49.6	97	48.8	2	6	90	0.01	30.149 
14:55	49.5	49.5	49.5	97	48.7	3	6	112	0.00	30.149 
15:00	49.5	49.5	49.5	97	48.7	2	7	90	0.00	30.171 
15:05	49.5	49.5	49.5	97	48.7	2	5	68	0.01	30.171 
15:10	49.5	49.5	49.5	97	48.7	3	9	90	0.01	30.171 
15:15	49.5	49.5	49.5	97	48.7	2	5	112	0.01	30.178 
15:20	49.6	49.6	49.6	97	48.8	1	4	90	0.01	30.178 
15:25	49.8	49.8	49.8	97	49.0	1	3	112	0.00	30.178 
15:30	49.8	49.8	49.8	97	49.0	2	6	112	0.00	30.175 
15:35	49.8	49.8	49.8	97	49.0	2	4	112	0.00	30.175 
15:40	49.9	49.9	49.9	97	49.1	2	5	90	0.01	30.175 
15:45	50.1	50.1	50.1	97	49.3	2	5	90	0.00	30.173 
15:50	50.1	50.1	50.1	97	49.3	3	6	90	0.00	30.173 
15:55	50.4	50.4	50.4	97	49.6	2	6	112	0.00	30.173 
16:00	50.5	50.5	50.5	97	49.7	2	5	68	0.00	30.154 
16:05	50.4	50.4	50.4	97	49.6	3	7	90	0.01	30.154 
16:10	50.1	50.1	50.1	96	49.0	4	9	90	0.00	30.154 
16:15	49.9	48.1	49.9	96	48.8	5	9	90	0.00	30.149 
16:20	50.1	50.1	50.1	96	49.0	4	7	90	0.00	30.149 
16:25	50.4	50.4	50.4	96	49.3	3	12	90	0.00	30.149 
16:30	50.4	50.4	50.4	96	49.3	2	7	90	0.00	30.153 
16:35	50.4	50.4	50.4	96	49.3	3	11	90	0.00	30.153 
16:40	50.4	50.4	50.4	96	49.3	3	9	90	0.00	30.153 
16:45	50.5	50.5	50.5	96	49.4	2	8	68	0.00	30.161 
16:50	50.7	50.7	50.7	96	49.6	1	4	68	0.00	30.161 
16:55	50.7	50.7	50.7	96	49.6	3	5	68	0.00	30.161 
17:00	50.5	50.5	50.5	96	49.4	2	7	90	0.00	30.160 
17:05	50.4	50.4	50.4	95	49.0	2	9	112	0.00	30.160 
17:10	50.2	50.2	50.2	95	48.8	2	6	112	0.00	30.160 
17:15	50.2	50.2	50.2	95	48.8	2	7	112	0.00	30.162 
17:20	50.1	50.1	50.1	95	48.7	3	6	112	0.00	30.162 
17:25	50.2	50.2	50.2	95	48.8	2	10	112	0.00	30.162 
17:30	50.2	50.2	50.2	95	48.8	2	4	90	0.00	30.161 
17:35	50.2	50.2	50.2	95	48.8	2	6	112	0.00	30.161 
17:40	50.4	50.4	50.4	95	49.0	1	4	112	0.00	30.161 
17:45	50.4	50.4	50.4	95	49.0	2	6	112	0.00	30.158 
17:50	50.2	50.2	50.2	94	48.5	3	7	90	0.00	30.158 
17:55	50.4	50.4	50.4	94	48.7	3	7	90	0.00	30.158 
18:00	50.4	50.4	50.4	94	48.7	2	5	90	0.00	30.145 
18:05	50.4	50.4	50.4	94	48.7	2	5	90	0.00	30.145 
18:10	50.4	50.4	50.4	94	48.7	4	9	90	0.00	30.145 
18:15	50.2	50.2	50.2	93	48.3	4	11	90	0.00	30.144 
18:20	50.2	50.2	50.2	93	48.3	4	9	90	0.00	30.144 
18:25	50.1	50.1	50.1	93	48.2	3	13	90	0.00	30.144 
18:30	49.9	48.8	49.9	92	47.7	4	11	90	0.00	30.145 
18:35	49.8	48.6	49.8	92	47.6	4	9	90	0.00	30.145 
18:40	49.9	49.9	49.9	92	47.7	2	6	68	0.00	30.145 
18:45	49.9	49.9	49.9	92	47.7	2	4	90	0.00	30.162 
18:50	49.9	49.9	49.9	92	47.7	2	5	90	0.00	30.162 
18:55	49.9	49.9	49.9	92	47.7	1	3	90	0.00	30.162 
19:00	50.1	50.1	50.1	92	47.9	2	6	90	0.00	30.167 
19:05	49.9	49.9	49.9	92	47.7	3	7	90	0.00	30.167 
19:10	49.8	49.8	49.8	92	47.6	3	6	135	0.00	30.167 
19:15	49.8	49.8	49.8	92	47.6	3	7	90	0.00	30.153 
19:20	49.8	48.6	49.8	92	47.6	4	11	90	0.00	30.153 
19:25	49.6	48.4	49.6	91	47.1	4	9	90	0.00	30.153 
19:30	49.8	48.6	49.8	91	47.3	4	10	90	0.00	30.136 
19:35	49.8	48.6	49.8	91	47.3	4	7	90	0.00	30.136 
19:40	49.8	48.6	49.8	91	47.3	4	9	90	0.00	30.136 
19:45	49.8	48.6	49.8	91	47.3	4	10	90	0.00	30.144 
19:50	49.6	49.6	49.6	91	47.1	3	6	90	0.00	30.144 
19:55	49.6	49.6	49.6	91	47.1	2	7	135	0.00	30.144 
20:00	49.5	47.6	49.5	91	47.0	5	12	90	0.00	30.150 
20:05	49.4	47.5	49.4	91	46.9	5	11	112	0.00	30.150 
20:10	49.4	48.2	49.4	91	46.9	4	11	112	0.00	30.150 
20:15	49.4	49.4	49.4	90	46.6	3	6	112	0.00	30.149 
20:20	49.2	49.2	49.2	90	46.4	3	10	90	0.00	30.149 
20:25	49.2	49.2	49.2	90	46.4	3	7	90	0.00	30.149 
20:30	49.2	47.9	49.2	90	46.4	4	13	112	0.00	30.151 
20:35	49.1	47.8	49.1	89	46.0	4	6	112	0.00	30.151 
20:40	49.1	47.2	49.1	89	46.0	5	12	90	0.00	30.151 
20:45	49.1	49.1	49.1	89	46.0	3	7	112	0.00	30.156 
20:50	49.1	49.1	49.1	90	46.3	3	6	68	0.00	30.156 
20:55	49.1	49.1	49.1	90	46.3	3	9	90	0.00	30.156 
21:00	48.9	48.9	48.9	90	46.1	3	6	112	0.00	30.167 
21:05	48.9	47.6	48.9	89	45.8	4	9	112	0.00	30.167 
21:10	48.9	47.6	48.9	89	45.8	4	11	112	0.00	30.167 
21:15	48.9	48.9	48.9	89	45.8	3	7	112	0.00	30.180 
21:20	48.8	47.5	48.8	89	45.7	4	10	90	0.00	30.180 
21:25	48.8	47.5	48.8	89	45.7	4	9	90	0.00	30.180 
21:30	48.8	48.8	48.8	89	45.7	3	9	90	0.00	30.181 
21:35	48.8	47.5	48.8	89	45.7	4	9	112	0.00	30.181 
21:40	48.6	46.6	48.6	89	45.5	5	10	90	0.00	30.181 
21:45	48.6	48.6	48.6	89	45.5	3	6	90	0.00	30.184 
21:50	48.6	48.6	48.6	89	45.5	3	8	90	0.00	30.184 
21:55	48.6	47.3	48.6	89	45.5	4	9	90	0.00	30.184 
22:00	48.6	48.6	48.6	89	45.5	2	7	112	0.00	30.199 
22:05	48.6	47.3	48.6	88	45.2	4	9	90	0.00	30.199 
22:10	48.5	48.5	48.5	88	45.1	3	8	90	0.00	30.199 
22:15	48.5	48.5	48.5	88	45.1	3	10	90	0.00	30.205 
22:20	48.5	48.5	48.5	88	45.1	3	8	112	0.00	30.205 
22:25	48.6	48.6	48.6	88	45.2	3	6	112	0.00	30.205 
22:30	48.6	48.6	48.6	88	45.2	2	5	112	0.00	30.215 
22:35	48.5	48.5	48.5	88	45.1	3	7	90	0.00	30.215 
22:40	48.5	48.5	48.5	87	44.8	3	9	90	0.00	30.215 
22:45	48.5	48.5	48.5	87	44.8	1	4	90	0.00	30.229 
22:50	48.5	48.5	48.5	87	44.8	2	6	68	0.00	30.229 
22:55	48.5	48.5	48.5	87	44.8	1	3	68	0.00	30.229 
23:00	48.6	48.6	48.6	88	45.2	1	4	68	0.00	30.244 
23:05	48.6	48.6	48.6	88	45.2	1	4	68	0.00	30.244 
23:10	48.5	48.5	48.5	88	45.1	2	5	90	0.00	30.244 
23:15	48.5	48.5	48.5	88	45.1	1	3	90	0.00	30.235 
23:20	48.5	48.5	48.5	88	45.1	1	5	90	0.00	30.235 
23:25	48.5	48.5	48.5	88	45.1	2	5	90	0.00	30.235 
23:30	48.3	48.3	48.3	88	44.9	2	6	90	0.00	30.226 
23:35	48.3	48.3	48.3	88	44.9	2	5	90	0.00	30.226 
23:40	48.3	48.3	48.3	87	44.6	3	7	112	0.00	30.226 
23:45	48.3	48.3	48.3	87	44.6	3	7	112	0.00	30.210 
23:50	48.3	48.3	48.3	88	44.9	2	6	112	0.00	30.210 
23:55	48.2	46.8	48.2	87	44.5	4	10	90	0.00	30.210 

CoCoRaHS
IN-AL-39
A2 Web Hosting
Creative Commons License
GoDaddy
search engine by freefind advanced

loaded 2018-11-13 21:20:06 • last modified 2010-11-18 10:43:29
Privacy PolicyDisclaimer
• wx.awcolley.com is powered by PmWiki v.2002016 •
• all content (unless otherwise noted) © 2018 A W Colley